ADDS METAR Data INFO
IDs: Format: Raw Decoded Include TAF

Data at: 0755 UTC 23 Jul 2018

KFNT 230753Z AUTO 17003KT 7SM OVC003 17/17 A2985 RMK AO2 SLP107 T01720167
KFNT 230653Z AUTO 21003KT 6SM BR OVC004 17/17 A2985 RMK AO2 SLP105 T01720167
KFNT 230621Z AUTO 21003KT 8SM OVC004 17/17 A2985 RMK AO2 CIG 003V008 T01720167
KFNT 230553Z AUTO 22003KT 8SM OVC006 17/17 A2985 RMK AO2 CIG 003V007 SLP107 T01720167 10189 20172 56005
KFNT 230512Z AUTO 24004KT 9SM BKN005 OVC022 17/17 A2985 RMK AO2 T01720167
KFNT 230501Z AUTO 25003KT 10SM SCT006 BKN016 OVC021 17/17 A2985 RMK AO2 T01720167
KFNT 230453Z AUTO 24003KT 10SM SCT006 BKN011 OVC021 17/17 A2986 RMK AO2 SLP108 T01720167 402110172
KFNT 230434Z AUTO 26003KT 10SM BKN007 OVC015 17/17 A2986 RMK AO2 T01720167
KFNT 230418Z AUTO 28004KT 10SM FEW004 OVC015 17/17 A2986 RMK AO2 T01720167
KFNT 230407Z AUTO 26005KT 10SM BKN015 OVC022 17/17 A2987 RMK AO2 T01720167
KFNT 230352Z AUTO 26004KT 10SM FEW005 BKN014 OVC022 17/16 A2987 RMK AO2 SLP112 T01720161
KFNT 230351Z AUTO 26004KT 10SM FEW005 BKN014 OVC022 17/16 A2987 RMK AO2
KFNT 230253Z 29008KT 9SM OVC020 17/16 A2987 RMK AO2 SLP113 T01720161 51003
KFNT 230153Z 29007KT 10SM SCT023 BKN029 OVC034 18/16 A2987 RMK AO2 SLP112 T01780161
KFNT 230100Z 32007KT 10SM BKN032 OVC045 19/16 A2987 RMK AO2 T01890161
KFNT 230053Z 31007KT 10SM BKN029 OVC034 19/17 A2986 RMK AO2 SLP110 T01890167
KFNT 222353Z 25005KT 10SM BKN046 OVC055 19/17 A2986 RMK AO2 SLP108 60008 T01890167 10211 20172 56001
KFNT 222253Z 00000KT 10SM OVC060 18/15 A2986 RMK AO2 SLP108 T01830150
KFNT 222153Z 36004KT 10SM FEW013 SCT024 OVC048 18/16 A2986 RMK AO2 RAE49 SLP110 P0007 T01780156
KFNT 222140Z 02008G21KT 10SM -RA FEW011 BKN025 OVC046 17/15 A2987 RMK AO2 P0007 T01720150
KFNT 222133Z 05016G21KT 2 1/2SM RA BR FEW009 SCT017 OVC025 17/15 A2987 RMK AO2 P0005 T01720150
KFNT 222104Z 02011KT 3SM -RA FEW012 BKN019 OVC040 18/16 A2987 RMK AO2 P0000 T01830156
KFNT 222053Z 03006KT 9SM -RA SCT021 BKN030 OVC040 19/16 A2986 RMK AO2 SLP109 P0001 60001 T01890156 55003
KFNT 221953Z 02006KT 10SM -RA BKN055 OVC075 20/16 A2986 RMK AO2 SLP109 P0000 T02000156
KFNT 221853Z 01010KT 10SM -RA FEW022 SCT031 OVC065 21/16 A2986 RMK AO2 RAB36 SLP110 P0000 T02060156
KFNT 221753Z 03006KT 10SM FEW023 BKN090 OVC110 20/16 A2987 RMK AO2 RAB23E47 SLP113 P0000 60000 T02000161 10206 20178 51004
KFNT 221653Z 02005KT 10SM FEW080 OVC110 19/16 A2987 RMK AO2 RAE50 SLP110 P0000 T01890156
KFNT 221553Z 09011KT 8SM -RA FEW015 SCT022 OVC036 18/16 A2988 RMK AO2 RAB1457E07B28 SLP115 P0000 T01780161
KFNT 221501Z 08011KT 10SM -RA SCT018 BKN029 OVC100 20/17 A2986 RMK AO2 RAB1457 P0000 T02000167
KFNT 221453Z 07009KT 10SM SCT020 BKN037 OVC100 20/17 A2986 RMK AO2 RAE11 SLP108 P0000 60000 T02000167 53011
KFNT 221434Z 07013KT 10SM BKN019 BKN040 OVC048 20/16 A2986 RMK AO2 RAE11 P0000 T02000161
KFNT 221400Z 08013KT 10SM -RA SCT014 OVC045 20/17 A2985 RMK AO2 P0000 T02000167
KFNT 221353Z 07012KT 10SM -RA BKN014 BKN050 OVC060 20/16 A2985 RMK AO2 RAB09E18B52 SLP105 P0000 T02000161
KFNT 221253Z 07011KT 10SM BKN011 OVC046 21/18 A2983 RMK AO2 SLP099 T02060178
KFNT 221222Z 06008KT 10SM OVC010 20/18 A2983 RMK AO2 T02000183
KFNT 221153Z 07007KT 8SM BKN007 OVC012 20/19 A2983 RMK AO2 SLP097 60000 70044 T02000189 10206 20200 53007
KFNT 221127Z 05007KT 7SM BKN007 BKN095 OVC120 20/19 A2982 RMK AO2 CIG 005V010 T02000189
KFNT 221108Z 06006KT 6SM BR SCT007 BKN090 OVC110 20/19 A2982 RMK AO2 T02000189
KFNT 221053Z 06008KT 7SM BKN006 OVC100 20/19 A2982 RMK AO2 RAB07E22 CIG 005V009 SLP093 P0000 T02000189
KFNT 221038Z 05008KT 8SM FEW007 OVC100 20/19 A2982 RMK AO2 RAB07E22 P0000 T02000189
KFNT 220953Z 05006KT 10SM FEW120 20/18 A2981 RMK AO2 SLP089 T02000183
KFNT 220853Z AUTO 06008KT 10SM FEW120 20/18 A2980 RMK AO2 SLP088 T02000183 55003
KFNT 220753Z AUTO 07009KT 10SM SCT049 SCT080 OVC120 20/18 A2980 RMK AO2 SLP087 T02000183
KFNT 220653Z AUTO 07007KT 10SM CLR 20/18 A2981 RMK AO2 SLP089 T02000183
KFNT 220553Z AUTO 08008KT 10SM FEW065 BKN080 OVC100 21/19 A2981 RMK AO2 SLP091 T02060189 10217 20200 58002
KFNT 220453Z AUTO 09008KT 10SM SCT050 OVC100 21/19 A2982 RMK AO2 SLP092 T02060189 402440194
KFNT 220411Z AUTO 07008KT 10SM SCT009 SCT017 BKN090 21/19 A2981 RMK AO2 T02110194
KFNT 220353Z AUTO 07008KT 10SM BKN009 BKN017 21/19 A2982 RMK AO2 CIG 008V012 SLP094 T02110194
KFNT 220333Z AUTO 07010KT 10SM BKN010 21/19 A2982 RMK AO2 CIG 008V012 T02110194
KFNT 220253Z 08008KT 10SM FEW110 21/19 A2982 RMK AO2 SLP094 T02110189 50008
KFNT 220202Z 05009KT 10SM FEW014 BKN033 OVC080 22/19 A2982 RMK AO2 T02170189
KFNT 220153Z 05010KT 10SM FEW014 BKN024 OVC033 22/19 A2982 RMK AO2 SLP095 T02170189
KFNT 220145Z 05007KT 10SM SCT015 BKN022 OVC090 22/19 A2982 RMK AO2 T02170189
KFNT 220053Z 07008KT 10SM FEW017 OVC033 22/18 A2981 RMK AO2 LTG DSNT NE SLP091 T02170183
KFNT 212353Z 12010KT 10SM SCT029 BKN120 22/18 A2980 RMK AO2 SLP086 60000 T02220178 10244 20211 51003
KFNT 212341Z 11008KT 10SM FEW024 SCT029 BKN110 22/18 A2979 RMK AO2 T02220183
KFNT 212334Z 10008KT 10SM FEW024 BKN029 BKN120 22/18 A2979 RMK AO2 T02220183
KFNT 212327Z 11007KT 10SM SCT024 BKN031 OVC110 22/18 A2980 RMK AO2 T02220183
KFNT 212253Z 11008KT 10SM FEW016 BKN024 OVC031 22/18 A2980 RMK AO2 SLP086 T02170183
KFNT 212214Z 11010KT 10SM BKN016 OVC021 21/19 A2980 RMK AO2 T02110189
KFNT 212153Z 12011KT 10SM BKN014 BKN031 BKN055 23/19 A2979 RMK AO2 SLP082 T02280189
KFNT 212148Z 12009KT 10SM SCT014 BKN031 BKN055 23/19 A2979 RMK AO2
KFNT 212141Z 12011KT 10SM BKN014 BKN029 OVC060 22/19 A2978 RMK AO2 T02220189
KFNT 212053Z 12010KT 10SM FEW015 BKN044 OVC110 23/19 A2978 RMK AO2 SLP080 60000 T02280189 53005
KFNT 212038Z 14009KT 10SM FEW017 BKN040 OVC110 23/19 A2978 RMK AO2 T02330189
KFNT 212010Z 13007KT 10SM BKN016 OVC034 23/19 A2977 RMK AO2 LTG DSNT NW T02280194
KFNT 211956Z 10011KT 10SM BKN014 BKN037 OVC050 23/19 A2977 RMK AO2 LTG DSNT NW T02280194